Time;durP1;ratioP1;P1;durP2;ratioP2;P2;SDS_P1;SDS_P2;PMS_P1;PMS_P2;Temp;Humidity;BMP_temperature;BMP_pressure;BME280_temperature;BME280_humidity;BME280_pressure;Samples;Min_cycle;Max_cycle;Signal;HPM_P1;HPM_P2
2021/09/30 00:02:07;;;;;;;20.42;11.13;;;;;;;15.84;84.69;99093.56;5132481;28;20036;-94
2021/09/30 00:04:33;;;;;;;21.63;10.27;;;;;;;15.67;84.06;99072.81;5132816;28;20048;-95
2021/09/30 00:06:59;;;;;;;18.85;9.90;;;;;;;15.68;84.40;99085.28;5132523;28;20492;-93
2021/09/30 00:09:27;;;;;;;18.83;10.77;;;;;;;15.67;83.82;99094.25;5132561;28;20035;-94
2021/09/30 00:12:00;;;;;;;20.45;11.13;;;;;;;15.49;84.06;99065.56;5132706;28;20052;-94
2021/09/30 00:14:38;;;;;;;22.25;11.32;;;;;;;15.70;84.18;99106.66;5132447;28;20077;-93
2021/09/30 00:52:45;;;;;;;22.15;11.65;;;;;;;15.28;86.45;99103.03;5113583;27;20507;-94
2021/09/30 01:58:30;;;;;;;20.73;11.27;;;;;;;14.56;88.59;99077.31;5114038;27;20329;-94
2021/09/30 02:21:57;;;;;;;24.33;11.27;;;;;;;14.51;89.74;99122.06;5154338;27;20390;-93
2021/09/30 02:59:46;;;;;;;26.88;14.15;;;;;;;14.63;88.52;99125.25;5112337;27;20396;-93
2021/09/30 03:02:15;;;;;;;24.60;12.48;;;;;;;14.53;88.31;99122.91;5110892;28;20130;-93
2021/09/30 03:04:44;;;;;;;26.25;13.23;;;;;;;14.42;88.71;99122.44;5113455;28;20044;-93
2021/09/30 03:07:10;;;;;;;25.17;12.75;;;;;;;14.37;88.74;99121.72;5113615;28;20114;-93
2021/09/30 03:12:37;;;;;;;22.42;10.95;;;;;;;14.24;89.83;99133.78;5126445;27;20327;-93
2021/09/30 03:23:57;;;;;;;21.85;11.25;;;;;;;14.30;90.88;99138.91;5125656;27;20366;-93
2021/09/30 03:26:25;;;;;;;25.05;11.45;;;;;;;14.29;91.52;99138.06;5085568;28;20040;-94
2021/09/30 03:28:52;;;;;;;27.30;12.38;;;;;;;14.29;91.70;99130.03;5092287;28;20085;-93
2021/09/30 03:31:22;;;;;;;26.70;12.65;;;;;;;14.29;91.96;99140.72;5091550;28;20044;-92
2021/09/30 03:33:49;;;;;;;26.48;12.88;;;;;;;14.24;91.71;99141.81;5090380;28;20045;-94
2021/09/30 03:36:15;;;;;;;25.15;12.27;;;;;;;14.11;91.43;99120.84;5092307;28;20036;-93
2021/09/30 03:38:41;;;;;;;24.15;11.57;;;;;;;14.20;91.15;99137.50;5092278;28;20132;-93
2021/09/30 03:41:09;;;;;;;23.23;11.43;;;;;;;14.23;90.34;99142.75;5092314;28;20123;-94
2021/09/30 03:43:35;;;;;;;25.48;12.95;;;;;;;14.12;90.12;99135.97;5091809;28;20043;-93
2021/09/30 03:46:00;;;;;;;25.95;11.82;;;;;;;14.13;90.18;99153.75;5091026;28;20036;-92
2021/09/30 03:48:26;;;;;;;26.30;12.50;;;;;;;13.93;90.29;99124.19;5091134;28;20036;-93
2021/09/30 03:59:52;;;;;;;24.40;12.43;;;;;;;13.75;91.28;99131.06;5153845;27;20360;-93
2021/09/30 04:02:18;;;;;;;24.85;12.63;;;;;;;13.84;91.61;99141.41;5157804;27;20039;-93
2021/09/30 04:04:44;;;;;;;26.58;12.82;;;;;;;13.70;92.19;99133.84;5153533;27;20382;-93
2021/09/30 04:07:10;;;;;;;27.13;12.38;;;;;;;13.79;92.16;99154.06;5161003;27;20069;-94
2021/09/30 04:09:39;;;;;;;23.77;12.25;;;;;;;13.69;91.81;99140.13;5159126;27;20038;-92
2021/09/30 04:12:08;;;;;;;24.88;12.50;;;;;;;13.75;91.61;99153.31;5163200;27;20484;-95
2021/09/30 04:14:34;;;;;;;28.70;12.82;;;;;;;13.67;92.28;99143.78;5159693;27;20130;-92
2021/09/30 04:17:02;;;;;;;29.00;11.90;;;;;;;13.57;92.67;99135.19;5157465;27;20063;-93
2021/09/30 04:19:28;;;;;;;24.37;12.07;;;;;;;13.56;92.67;99142.34;5158121;27;20092;-95
2021/09/30 04:21:55;;;;;;;29.85;14.77;;;;;;;13.66;93.05;99161.63;5153673;27;20043;-93
2021/09/30 04:24:22;;;;;;;27.42;12.93;;;;;;;13.54;92.59;99143.31;5153872;27;20507;-93
2021/09/30 04:26:49;;;;;;;24.75;13.18;;;;;;;13.47;93.27;99134.66;5153991;27;20038;-93
2021/09/30 04:29:15;;;;;;;30.02;13.63;;;;;;;13.47;92.99;99144.47;5156959;27;20146;-94
2021/09/30 04:31:42;;;;;;;30.88;13.70;;;;;;;13.59;92.98;99167.22;5161549;27;20054;-93
2021/09/30 04:34:09;;;;;;;25.83;12.65;;;;;;;13.47;93.00;99149.81;5157330;27;20564;-92
2021/09/30 04:36:35;;;;;;;27.65;13.68;;;;;;;13.61;93.06;99176.94;5154460;27;20452;-94
2021/09/30 04:39:02;;;;;;;27.73;12.77;;;;;;;13.54;92.84;99164.69;5155269;27;20031;-93
2021/09/30 04:41:28;;;;;;;26.45;13.38;;;;;;;13.69;94.45;99174.03;5153156;27;20042;-92
2021/09/30 04:43:54;;;;;;;29.83;13.88;;;;;;;13.68;93.72;99167.78;5154872;27;20039;-94
2021/09/30 04:46:20;;;;;;;30.75;14.07;;;;;;;13.65;92.85;99154.53;5154424;27;20068;-93
2021/09/30 04:48:46;;;;;;;30.40;13.85;;;;;;;13.63;93.27;99168.88;5160416;27;20027;-95
2021/09/30 04:51:14;;;;;;;32.45;13.57;;;;;;;13.64;93.11;99166.16;5156051;27;20433;-92
2021/09/30 04:53:40;;;;;;;28.40;13.77;;;;;;;13.60;92.75;99152.91;5160458;27;20496;-93
2021/09/30 04:56:06;;;;;;;30.90;13.63;;;;;;;13.71;92.25;99173.03;5158672;27;20076;-94
2021/09/30 04:58:32;;;;;;;28.58;12.93;;;;;;;13.69;92.53;99174.88;5153630;27;20039;-93
2021/09/30 05:00:58;;;;;;;31.15;13.73;;;;;;;13.66;92.43;99168.75;5156113;27;20035;-93
2021/09/30 05:03:24;;;;;;;27.98;13.40;;;;;;;13.64;92.34;99170.59;5156993;27;20046;-92
2021/09/30 05:05:50;;;;;;;31.08;13.88;;;;;;;13.69;92.53;99182.03;5153212;27;20078;-93
2021/09/30 05:08:17;;;;;;;30.17;13.80;;;;;;;13.59;92.55;99167.22;5155074;27;20027;-93
2021/09/30 05:10:45;;;;;;;29.25;13.35;;;;;;;13.64;92.18;99187.53;5144669;27;20034;-92
2021/09/30 05:13:16;;;;;;;30.55;14.10;;;;;;;13.60;92.57;99176.97;5137973;27;20043;-91
2021/09/30 05:15:43;;;;;;;32.70;15.25;;;;;;;13.53;94.31;99157.59;5143267;27;20064;-92
2021/09/30 05:18:11;;;;;;;30.65;14.32;;;;;;;13.55;94.13;99158.41;5137799;27;20070;-92
2021/09/30 05:20:37;;;;;;;34.15;14.80;;;;;;;13.68;94.03;99172.25;5143101;27;20046;-92
2021/09/30 05:23:03;;;;;;;32.72;14.50;;;;;;;13.63;93.09;99160.84;5139801;27;20043;-93
2021/09/30 05:25:31;;;;;;;29.23;14.27;;;;;;;13.79;92.73;99186.13;5140761;27;20095;-94
2021/09/30 05:27:56;;;;;;;31.35;14.45;;;;;;;13.67;92.05;99163.38;5138217;27;20353;-95
2021/09/30 05:30:22;;;;;;;29.83;13.90;;;;;;;13.77;91.82;99183.53;5138352;27;20126;-92
2021/09/30 05:32:49;;;;;;;27.27;13.45;;;;;;;13.75;92.08;99185.38;5144442;27;20551;-94
2021/09/30 05:35:16;;;;;;;32.20;14.40;;;;;;;13.74;92.58;99175.59;5147064;27;20035;-94
2021/09/30 05:37:43;;;;;;;26.58;14.27;;;;;;;13.88;92.23;99193.84;5144196;27;20552;-93
2021/09/30 05:40:14;;;;;;;28.70;14.73;;;;;;;13.84;92.07;99191.34;5137965;27;20058;-94
2021/09/30 05:42:43;;;;;;;29.83;14.25;;;;;;;13.96;91.90;99209.63;5139541;27;20500;-94
2021/09/30 05:45:15;;;;;;;26.65;14.80;;;;;;;13.91;91.59;99192.88;5137878;27;20043;-94
2021/09/30 05:47:41;;;;;;;34.63;14.43;;;;;;;13.94;91.54;99185.63;5139436;27;20047;-94
2021/09/30 05:50:09;;;;;;;35.72;15.95;;;;;;;14.05;91.33;99197.75;5141430;27;20053;-94
2021/09/30 05:52:35;;;;;;;31.63;15.33;;;;;;;14.23;90.53;99207.81;5140821;27;20047;-93
2021/09/30 05:55:03;;;;;;;31.63;15.25;;;;;;;14.32;89.64;99207.50;5139745;27;20100;-95
2021/09/30 05:57:29;;;;;;;35.38;15.73;;;;;;;14.30;89.26;99205.81;5138156;27;20100;-94
2021/09/30 06:00:06;;;;;;;28.05;13.73;;;;;;;14.25;89.09;99205.97;5138541;27;20046;-95
2021/09/30 06:14:25;;;;;;;33.10;15.25;;;;;;;14.71;89.23;99230.25;5132816;27;20383;-94
2021/09/30 06:16:53;;;;;;;37.50;16.17;;;;;;;14.88;89.12;99243.00;5132375;28;20117;-95
2021/09/30 06:19:21;;;;;;;30.02;14.95;;;;;;;14.91;89.68;99219.66;5132562;28;20044;-94
2021/09/30 06:21:54;;;;;;;30.42;14.65;;;;;;;15.18;88.81;99236.50;5132370;28;20047;-94
2021/09/30 06:24:23;;;;;;;33.75;16.20;;;;;;;15.38;87.53;99246.44;5132637;28;20047;-94
2021/09/30 06:26:49;;;;;;;34.03;15.35;;;;;;;15.42;86.37;99233.78;5132510;28;20054;-94
2021/09/30 06:29:16;;;;;;;32.05;14.63;;;;;;;15.52;84.60;99245.00;5132276;28;20130;-93
2021/09/30 06:31:43;;;;;;;36.90;15.20;;;;;;;15.53;84.51;99246.78;5131801;28;20039;-94
2021/09/30 06:34:09;;;;;;;32.20;15.13;;;;;;;15.71;84.30;99247.84;5129178;28;20039;-93
2021/09/30 06:36:35;;;;;;;34.95;16.23;;;;;;;15.82;84.52;99253.66;5132228;28;20116;-93
2021/09/30 06:39:02;;;;;;;31.30;15.68;;;;;;;15.82;84.62;99232.22;5131893;28;20093;-93
2021/09/30 06:41:28;;;;;;;31.67;15.43;;;;;;;15.99;83.85;99244.94;5134943;28;20032;-94
2021/09/30 06:43:54;;;;;;;30.88;15.20;;;;;;;16.08;82.96;99244.53;5134508;28;20039;-94
2021/09/30 06:46:20;;;;;;;32.30;15.55;;;;;;;16.20;82.17;99243.16;5134755;28;20065;-94
2021/09/30 06:48:47;;;;;;;29.40;15.48;;;;;;;16.21;81.45;99232.34;5134805;28;20035;-94
2021/09/30 06:51:13;;;;;;;31.05;15.20;;;;;;;16.36;81.13;99251.41;5133515;28;20051;-92
2021/09/30 06:53:39;;;;;;;30.65;14.65;;;;;;;16.47;80.35;99246.47;5132136;28;20043;-95
2021/09/30 06:56:09;;;;;;;34.08;15.68;;;;;;;16.61;80.01;99267.31;5132946;28;20039;-94
2021/09/30 06:58:41;;;;;;;31.65;15.45;;;;;;;16.60;79.29;99250.34;5134732;28;20035;-93
2021/09/30 07:01:08;;;;;;;30.95;15.13;;;;;;;16.76;78.85;99252.34;5132921;28;20070;-93
2021/09/30 07:03:34;;;;;;;31.45;16.42;;;;;;;16.83;77.96;99256.56;5132749;27;20399;-92
2021/09/30 07:06:02;;;;;;;30.52;16.73;;;;;;;16.90;77.80;99252.66;5132517;28;20123;-92
2021/09/30 07:08:28;;;;;;;31.95;16.20;;;;;;;17.04;78.32;99268.13;5133957;28;20488;-92
2021/09/30 07:10:54;;;;;;;35.10;18.02;;;;;;;17.06;78.74;99254.63;5132485;28;20039;-92
2021/09/30 07:13:19;;;;;;;37.75;18.70;;;;;;;17.21;78.89;99251.22;5133137;28;20081;-93
2021/09/30 07:15:45;;;;;;;32.10;16.35;;;;;;;17.45;77.43;99257.28;5133062;28;20075;-92
2021/09/30 07:18:13;;;;;;;34.55;15.82;;;;;;;17.33;76.37;99241.75;5133451;28;20058;-95
2021/09/30 07:20:39;;;;;;;28.83;15.05;;;;;;;17.41;76.23;99235.06;5132648;28;20035;-95
2021/09/30 07:23:07;;;;;;;32.20;15.65;;;;;;;17.65;75.83;99242.84;5133079;28;20053;-94
2021/09/30 07:25:33;;;;;;;31.30;16.40;;;;;;;17.95;75.52;99263.88;5118678;28;20078;-93
2021/09/30 07:27:58;;;;;;;31.65;14.82;;;;;;;18.08;74.70;99246.16;5117703;28;20043;-92
2021/09/30 07:30:25;;;;;;;30.27;15.73;;;;;;;18.26;73.65;99250.63;5117699;28;20039;-94
2021/09/30 07:32:51;;;;;;;28.88;15.40;;;;;;;18.33;73.04;99244.94;5117980;28;20043;-93
2021/09/30 07:35:17;;;;;;;32.75;16.00;;;;;;;18.51;72.82;99246.66;5118243;28;20374;-93
2021/09/30 07:37:44;;;;;;;30.98;15.30;;;;;;;18.66;72.18;99255.78;5121375;28;20036;-92
2021/09/30 07:40:15;;;;;;;29.75;15.55;;;;;;;18.74;71.50;99250.84;5117902;28;20039;-93
2021/09/30 07:42:40;;;;;;;32.40;17.27;;;;;;;18.87;71.02;99251.97;5118570;28;20063;-94
2021/09/30 07:45:07;;;;;;;32.95;16.88;;;;;;;19.04;70.41;99261.84;5117485;28;20068;-93
2021/09/30 07:47:33;;;;;;;31.17;16.30;;;;;;;19.06;69.49;99248.28;5118024;28;20485;-95
2021/09/30 07:49:59;;;;;;;33.10;16.33;;;;;;;19.11;70.02;99258.84;5117136;28;20046;-94
2021/09/30 07:52:25;;;;;;;39.45;18.08;;;;;;;18.97;69.79;99251.47;5117543;28;20046;-93
2021/09/30 07:54:51;;;;;;;28.25;15.65;;;;;;;19.05;70.05;99233.94;5118108;28;20042;-93
2021/09/30 07:57:18;;;;;;;29.52;15.15;;;;;;;19.34;69.25;99241.38;5118672;28;20050;-94
2021/09/30 07:59:44;;;;;;;35.28;15.88;;;;;;;19.52;68.89;99234.06;5118095;28;20040;-93
2021/09/30 08:02:13;;;;;;;32.30;16.70;;;;;;;19.65;67.95;99249.50;5116867;28;20048;-95
2021/09/30 08:04:41;;;;;;;33.38;16.38;;;;;;;19.76;68.23;99232.72;5117481;28;20044;-94
2021/09/30 08:07:07;;;;;;;31.80;15.43;;;;;;;19.95;67.69;99228.94;5117095;28;20048;-94
2021/09/30 08:09:33;;;;;;;34.30;15.45;;;;;;;20.12;66.29;99226.13;5117903;28;20051;-95
2021/09/30 08:12:00;;;;;;;34.22;16.73;;;;;;;20.35;65.51;99245.53;5121040;28;20040;-93
2021/09/30 08:14:27;;;;;;;31.55;15.95;;;;;;;20.36;64.72;99220.25;5120691;28;20519;-93
2021/09/30 08:16:53;;;;;;;25.98;14.18;;;;;;;20.47;65.17;99232.16;5118676;28;20040;-94
2021/09/30 08:19:19;;;;;;;21.98;12.30;;;;;;;20.61;64.99;99228.63;5119033;28;20078;-95
2021/09/30 08:21:45;;;;;;;25.65;12.70;;;;;;;20.69;64.35;99237.16;5118505;28;20071;-94
2021/09/30 08:24:16;;;;;;;20.70;12.45;;;;;;;20.80;64.51;99243.75;5123845;28;20039;-94
2021/09/30 08:26:45;;;;;;;19.40;11.63;;;;;;;20.96;63.47;99231.00;5119117;28;20050;-94
2021/09/30 08:29:11;;;;;;;21.45;12.20;;;;;;;21.06;62.73;99217.78;5119172;28;20092;-93
2021/09/30 08:31:38;;;;;;;24.33;12.68;;;;;;;20.95;63.63;99231.97;5117723;28;20047;-92
2021/09/30 08:34:07;;;;;;;21.17;12.38;;;;;;;20.88;63.40;99226.06;5122532;28;20043;-92
2021/09/30 08:36:33;;;;;;;19.08;12.07;;;;;;;21.26;62.11;99251.66;5115649;28;20039;-89
2021/09/30 08:39:02;;;;;;;18.50;11.65;;;;;;;21.15;62.17;99233.41;5117875;28;20032;-93
2021/09/30 08:41:28;;;;;;;18.48;11.38;;;;;;;21.44;62.21;99257.78;5120133;28;20039;-93
2021/09/30 08:43:54;;;;;;;20.65;12.48;;;;;;;21.26;61.61;99221.91;5118242;28;20469;-93
2021/09/30 08:46:24;;;;;;;23.58;12.23;;;;;;;21.73;60.65;99258.59;5116837;28;20108;-93
2021/09/30 08:48:51;;;;;;;20.88;11.25;;;;;;;21.77;58.77;99246.59;5118095;28;20036;-93
2021/09/30 08:51:18;;;;;;;19.13;11.55;;;;;;;21.85;58.66;99246.97;5118444;28;20040;-92
2021/09/30 08:53:45;;;;;;;21.63;11.32;;;;;;;21.99;58.91;99226.22;5117898;28;20096;-92
2021/09/30 08:56:12;;;;;;;17.67;11.23;;;;;;;21.68;59.15;99234.53;5119028;28;20110;-93
2021/09/30 08:58:39;;;;;;;19.13;11.27;;;;;;;21.93;58.75;99250.03;5119633;28;20035;-95
2021/09/30 09:01:07;;;;;;;19.55;12.68;;;;;;;21.82;58.59;99235.47;5118179;28;20047;-92
2021/09/30 09:03:36;;;;;;;18.38;11.95;;;;;;;21.86;59.00;99267.66;5118045;28;20086;-92
2021/09/30 09:06:04;;;;;;;19.02;11.40;;;;;;;21.64;59.95;99241.13;5117415;28;20055;-91
2021/09/30 09:08:30;;;;;;;19.70;10.73;;;;;;;22.00;59.18;99255.03;5118032;28;20047;-93
2021/09/30 09:10:57;;;;;;;20.45;12.00;;;;;;;22.03;58.72;99260.25;5117416;28;20288;-93
2021/09/30 09:13:24;;;;;;;25.23;13.23;;;;;;;22.39;58.18;99261.50;5116424;28;20075;-93
2021/09/30 09:15:54;;;;;;;23.90;12.25;;;;;;;22.40;57.16;99255.09;5116205;28;20039;-93
2021/09/30 09:18:23;;;;;;;21.52;12.68;;;;;;;22.28;56.75;99254.97;5117127;28;20039;-93
2021/09/30 09:21:04;;;;;;;20.60;11.75;;;;;;;22.65;57.04;99274.13;5117035;28;20055;-95
2021/09/30 09:23:30;;;;;;;21.20;12.73;;;;;;;22.41;57.94;99263.13;5113875;28;20043;-91
2021/09/30 09:26:12;;;;;;;21.52;12.85;;;;;;;22.27;58.54;99255.94;5116362;28;20050;-92
2021/09/30 09:28:40;;;;;;;19.58;11.60;;;;;;;22.78;57.61;99276.88;5116712;28;20040;-93
2021/09/30 09:31:06;;;;;;;25.65;14.38;;;;;;;22.81;56.27;99281.19;5116782;28;20058;-92
2021/09/30 09:36:34;;;;;;;17.67;11.40;;;;;;;22.88;55.10;99272.53;5142579;27;20874;-94
2021/09/30 09:39:00;;;;;;;18.42;11.45;;;;;;;23.13;54.44;99263.56;5100401;28;20075;-92
2021/09/30 09:41:29;;;;;;;19.20;10.98;;;;;;;23.30;54.74;99250.66;5111421;28;20040;-94
2021/09/30 09:43:57;;;;;;;19.38;11.57;;;;;;;23.04;54.68;99245.22;5101860;28;20505;-93
2021/09/30 09:46:28;;;;;;;18.83;11.70;;;;;;;23.14;55.27;99265.31;5113114;28;20397;-93
2021/09/30 09:49:00;;;;;;;23.20;12.32;;;;;;;23.18;54.30;99263.22;5110497;28;20052;-93
2021/09/30 09:51:32;;;;;;;17.02;10.85;;;;;;;23.21;55.31;99235.91;5101271;28;20044;-93
2021/09/30 09:53:59;;;;;;;63.63;24.85;;;;;;;23.37;53.63;99227.50;5102711;28;20044;-94
2021/09/30 09:56:25;;;;;;;16.02;10.68;;;;;;;23.47;53.97;99230.44;5114448;28;20059;-95
2021/09/30 09:58:55;;;;;;;19.10;11.40;;;;;;;23.51;53.57;99232.81;5107559;28;20044;-94
2021/09/30 10:01:23;;;;;;;17.50;11.73;;;;;;;23.49;53.90;99218.47;5103011;28;20521;-92
2021/09/30 10:03:55;;;;;;;19.15;11.60;;;;;;;23.49;54.26;99248.34;5109822;28;20063;-93
2021/09/30 10:06:21;;;;;;;17.95;11.65;;;;;;;23.56;54.49;99246.91;5105437;28;20052;-94
2021/09/30 10:08:47;;;;;;;18.50;11.43;;;;;;;23.57;55.22;99221.50;5104148;28;20063;-92
2021/09/30 10:11:15;;;;;;;17.38;10.60;;;;;;;24.10;52.76;99242.09;5102614;28;20490;-95
2021/09/30 10:13:41;;;;;;;17.38;11.23;;;;;;;23.98;53.02;99222.13;5106415;28;20125;-96
2021/09/30 10:16:07;;;;;;;16.25;10.15;;;;;;;24.03;52.14;99205.47;5110909;28;20059;-96
2021/09/30 10:18:33;;;;;;;16.83;9.52;;;;;;;24.19;48.56;99222.38;5115535;28;20509;-93
2021/09/30 10:20:59;;;;;;;16.95;10.25;;;;;;;24.01;49.54;99216.50;5105634;28;20068;-95
2021/09/30 10:23:29;;;;;;;14.18;9.65;;;;;;;23.73;48.73;99214.94;5102095;28;20090;-93
2021/09/30 10:25:57;;;;;;;14.23;9.23;;;;;;;24.07;48.16;99229.63;5112710;28;20046;-95
2021/09/30 10:28:26;;;;;;;15.48;9.57;;;;;;;23.96;47.63;99213.22;5106832;28;20044;-94
2021/09/30 10:30:53;;;;;;;14.65;9.52;;;;;;;23.76;47.26;99199.28;5103952;28;20047;-94
2021/09/30 10:33:22;;;;;;;14.73;9.35;;;;;;;23.86;47.85;99213.06;5100584;28;20444;-94
2021/09/30 10:35:52;;;;;;;15.27;9.82;;;;;;;23.99;48.55;99208.44;5105315;28;20044;-91
2021/09/30 10:38:23;;;;;;;13.98;9.40;;;;;;;24.18;48.45;99215.19;5106656;28;20048;-94
2021/09/30 10:41:09;;;;;;;13.93;9.80;;;;;;;24.24;48.13;99212.00;5105918;28;20096;-92
2021/09/30 10:46:55;;;;;;;14.82;10.00;;;;;;;24.40;48.32;99189.97;5013115;28;20861;-95
2021/09/30 10:52:51;;;;;;;14.32;9.50;;;;;;;24.51;48.38;99189.16;5113693;27;20376;-94
2021/09/30 10:55:28;;;;;;;16.00;9.73;;;;;;;24.59;48.27;99189.41;5105268;28;20054;-95
2021/09/30 10:57:56;;;;;;;13.32;9.65;;;;;;;24.42;47.54;99190.72;5109456;28;20396;-93
2021/09/30 11:00:49;;;;;;;16.08;10.05;;;;;;;24.70;47.99;99197.63;5110122;28;20131;-93
2021/09/30 11:03:20;;;;;;;16.98;10.35;;;;;;;24.68;47.68;99201.41;5110600;28;20040;-93
2021/09/30 11:06:14;;;;;;;15.65;10.10;;;;;;;24.82;48.15;99195.75;5111485;28;20051;-91
2021/09/30 11:08:47;;;;;;;14.68;9.77;;;;;;;24.57;49.06;99194.09;5109966;28;20047;-92
2021/09/30 11:11:16;;;;;;;17.25;10.35;;;;;;;24.76;47.23;99194.38;5110958;28;20043;-92
2021/09/30 11:13:45;;;;;;;18.83;10.73;;;;;;;24.67;47.62;99195.13;5111173;28;20362;-93
2021/09/30 11:16:14;;;;;;;15.52;9.77;;;;;;;24.55;47.62;99196.09;5110767;28;20451;-93
2021/09/30 11:18:50;;;;;;;16.08;10.43;;;;;;;24.46;48.21;99197.63;5111631;28;20119;-95
2021/09/30 11:21:49;;;;;;;16.30;10.30;;;;;;;24.70;48.69;99203.06;5113920;28;20040;-93
2021/09/30 11:24:31;;;;;;;15.07;10.05;;;;;;;24.72;48.21;99194.75;5108308;28;20040;-93
2021/09/30 11:27:12;;;;;;;16.58;10.13;;;;;;;24.89;48.28;99198.88;5112146;28;20039;-94
2021/09/30 11:29:38;;;;;;;14.45;9.73;;;;;;;24.81;48.00;99196.75;5113086;28;20043;-94
2021/09/30 11:32:24;;;;;;;16.90;10.07;;;;;;;24.89;47.58;99193.41;5112031;28;20072;-94
2021/09/30 11:34:55;;;;;;;18.77;12.02;;;;;;;24.67;47.91;99205.13;5111818;28;20036;-95
2021/09/30 11:37:27;;;;;;;16.80;10.15;;;;;;;24.78;47.73;99205.16;5111864;28;20054;-94
2021/09/30 11:39:56;;;;;;;16.83;10.35;;;;;;;24.67;48.29;99203.28;5111639;28;20058;-92
2021/09/30 11:42:24;;;;;;;17.73;10.93;;;;;;;24.54;48.12;99205.22;5111820;28;20040;-94
2021/09/30 11:44:59;;;;;;;14.98;9.82;;;;;;;24.43;47.99;99194.28;5112219;28;20055;-95
2021/09/30 11:47:26;;;;;;;19.70;11.68;;;;;;;24.27;48.06;99187.31;5111232;28;20040;-93
2021/09/30 11:49:52;;;;;;;17.63;11.55;;;;;;;24.36;48.97;99197.47;5104458;28;20035;-93
2021/09/30 11:52:18;;;;;;;18.48;10.98;;;;;;;24.54;48.42;99191.63;5111660;28;20044;-93
2021/09/30 11:54:44;;;;;;;14.07;9.38;;;;;;;24.74;48.41;99190.06;5114527;28;20485;-95
2021/09/30 11:57:20;;;;;;;15.18;9.60;;;;;;;24.80;47.80;99195.88;5114896;28;20446;-94
2021/09/30 11:59:46;;;;;;;16.27;10.18;;;;;;;24.56;47.12;99173.34;5113480;28;20119;-94
2021/09/30 12:02:13;;;;;;;15.43;10.00;;;;;;;24.77;47.54;99181.69;5109022;28;20062;-95
2021/09/30 12:08:30;;;;;;;14.35;10.40;;;;;;;24.46;48.46;99165.00;5108613;27;20377;-96
2021/09/30 12:11:31;;;;;;;15.65;9.70;;;;;;;24.60;47.12;99169.41;5109248;28;20047;-94
2021/09/30 12:14:01;;;;;;;15.32;9.68;;;;;;;24.76;47.72;99183.50;5107272;28;20066;-93
2021/09/30 12:16:30;;;;;;;14.70;9.98;;;;;;;24.69;47.02;99165.94;5104721;28;20056;-92
2021/09/30 12:19:00;;;;;;;18.00;10.30;;;;;;;24.86;47.42;99182.78;5109392;28;20047;-93
2021/09/30 12:21:35;;;;;;;18.48;11.32;;;;;;;24.66;46.76;99171.66;5108459;28;20103;-94
2021/09/30 12:24:03;;;;;;;15.45;9.65;;;;;;;24.51;47.01;99168.28;5101017;28;20119;-93
2021/09/30 12:26:30;;;;;;;13.23;9.35;;;;;;;24.64;46.52;99162.75;5110182;28;20043;-94
2021/09/30 12:28:56;;;;;;;13.80;9.40;;;;;;;24.62;45.69;99159.28;5111918;28;20040;-93
2021/09/30 12:31:23;;;;;;;15.73;9.73;;;;;;;24.59;47.45;99151.34;5104111;28;20036;-94
2021/09/30 12:33:49;;;;;;;15.13;9.80;;;;;;;24.70;45.70;99151.38;5105969;28;20047;-94
2021/09/30 12:36:17;;;;;;;14.90;9.85;;;;;;;24.69;45.85;99136.03;5106073;28;20036;-91
2021/09/30 12:38:55;;;;;;;14.15;9.63;;;;;;;24.56;45.95;99166.03;5113247;28;20521;-93
2021/09/30 12:41:22;;;;;;;14.02;9.50;;;;;;;24.72;46.19;99160.28;5114435;28;20051;-94
2021/09/30 12:43:48;;;;;;;14.73;8.83;;;;;;;24.67;46.12;99139.88;5108376;28;20062;-95
2021/09/30 12:46:17;;;;;;;16.88;9.93;;;;;;;24.64;45.69;99140.97;5112205;28;20039;-93
2021/09/30 12:48:48;;;;;;;14.48;8.93;;;;;;;24.72;45.48;99143.97;5106516;28;20036;-94
2021/09/30 12:51:16;;;;;;;17.45;10.02;;;;;;;24.77;45.14;99119.97;5103077;28;20062;-92
2021/09/30 12:53:44;;;;;;;15.97;10.07;;;;;;;24.86;45.65;99133.84;5106088;28;20058;-92
2021/09/30 12:56:11;;;;;;;;;;;;;;;24.89;44.15;99152.63;5114569;28;20052;-94
2021/09/30 12:58:41;;;;;;;16.98;10.35;;;;;;;24.65;43.85;99152.72;5113778;28;19923;-95
2021/09/30 13:01:30;;;;;;;13.75;9.10;;;;;;;24.70;43.07;99145.94;5103883;28;20047;-94
2021/09/30 13:04:11;;;;;;;15.15;9.07;;;;;;;24.80;43.77;99129.75;5103839;28;20047;-94
2021/09/30 13:06:39;;;;;;;13.38;8.43;;;;;;;24.91;44.86;99135.19;5110442;28;20048;-93
2021/09/30 13:09:05;;;;;;;19.13;9.33;;;;;;;25.05;44.64;99150.41;5107752;28;20050;-94
2021/09/30 13:11:33;;;;;;;16.90;9.07;;;;;;;24.98;44.38;99124.66;5106939;28;20550;-94
2021/09/30 13:14:22;;;;;;;14.05;9.27;;;;;;;24.86;43.95;99136.56;5105607;28;20036;-93
2021/09/30 13:16:48;;;;;;;;;;;;;;;24.99;44.66;99161.78;5102472;28;20040;-93
2021/09/30 13:19:15;;;;;;;14.40;9.30;;;;;;;24.97;44.83;99155.59;5097826;28;19919;-93
2021/09/30 13:22:00;;;;;;;13.50;8.95;;;;;;;24.86;44.60;99151.00;5094105;28;20123;-94
2021/09/30 13:24:27;;;;;;;13.25;8.40;;;;;;;24.87;43.59;99138.28;5096144;28;20047;-95
2021/09/30 13:26:54;;;;;;;14.75;9.07;;;;;;;24.80;43.12;99127.88;5096306;28;20048;-92
2021/09/30 13:29:22;;;;;;;13.63;8.90;;;;;;;24.73;43.53;99139.38;5085661;28;20039;-94
2021/09/30 13:31:48;;;;;;;16.08;9.32;;;;;;;24.62;42.93;99123.94;5097534;28;20052;-92
2021/09/30 13:34:14;;;;;;;12.18;7.97;;;;;;;24.66;42.76;99114.53;5088573;28;20591;-93
2021/09/30 13:36:40;;;;;;;13.32;9.02;;;;;;;24.66;43.47;99130.84;5091792;28;20037;-94
2021/09/30 13:39:07;;;;;;;13.02;8.40;;;;;;;24.79;43.39;99134.31;5099253;28;20041;-93
2021/09/30 13:41:33;;;;;;;12.73;8.07;;;;;;;24.86;43.57;99125.66;5099047;28;20138;-93
2021/09/30 13:43:59;;;;;;;12.63;8.63;;;;;;;24.91;43.42;99134.31;5099987;28;20047;-93
2021/09/30 13:46:26;;;;;;;14.30;7.78;;;;;;;24.98;43.60;99121.94;5096364;28;20070;-95
2021/09/30 13:48:52;;;;;;;13.65;7.90;;;;;;;24.92;44.09;99119.75;5094442;28;20044;-95
2021/09/30 13:51:18;;;;;;;13.02;8.52;;;;;;;24.91;43.85;99126.16;5090996;28;20036;-94
2021/09/30 13:53:45;;;;;;;15.27;8.45;;;;;;;24.78;43.74;99109.94;5090624;28;20045;-95
2021/09/30 13:56:11;;;;;;;15.55;8.60;;;;;;;24.79;44.66;99133.47;5100971;28;20509;-94
2021/09/30 13:58:37;;;;;;;20.05;8.90;;;;;;;24.57;45.03;99126.13;5097134;28;20051;-95
2021/09/30 14:01:03;;;;;;;14.50;8.77;;;;;;;24.74;44.54;99151.97;5091439;28;20036;-94
2021/09/30 14:03:34;;;;;;;14.10;8.50;;;;;;;24.55;44.84;99128.13;5082504;28;20052;-93
2021/09/30 14:06:01;;;;;;;13.90;8.75;;;;;;;24.34;45.55;99122.47;5094273;28;20397;-95
2021/09/30 14:08:29;;;;;;;13.77;8.90;;;;;;;24.40;45.85;99114.72;5124911;27;20508;-95
2021/09/30 14:10:56;;;;;;;14.93;8.43;;;;;;;24.53;45.73;99127.38;5142628;27;20043;-93
2021/09/30 14:13:22;;;;;;;15.32;8.52;;;;;;;24.52;46.23;99126.50;5116721;28;20032;-94
2021/09/30 14:15:48;;;;;;;15.18;8.73;;;;;;;24.51;44.42;99130.22;5120488;28;20047;-94
2021/09/30 14:18:20;;;;;;;16.40;8.15;;;;;;;24.39;45.10;99114.81;5121314;28;20039;-95
2021/09/30 14:20:48;;;;;;;17.05;8.98;;;;;;;24.37;45.50;99117.66;5122573;28;20060;-95
2021/09/30 14:23:15;;;;;;;16.00;9.10;;;;;;;24.34;45.43;99106.19;5122447;28;20040;-96
2021/09/30 14:25:42;;;;;;;14.70;8.23;;;;;;;24.34;46.19;99114.34;5107005;28;20477;-96
2021/09/30 14:28:09;;;;;;;14.70;8.68;;;;;;;24.33;46.39;99127.06;5102159;28;20062;-95
2021/09/30 14:30:37;;;;;;;18.55;9.30;;;;;;;24.18;46.13;99101.06;5113861;28;20054;-96
2021/09/30 14:33:04;;;;;;;14.32;8.93;;;;;;;24.08;46.12;99100.06;5117575;28;20051;-93
2021/09/30 14:35:31;;;;;;;16.40;8.77;;;;;;;24.06;46.81;99112.91;5122413;28;20051;-95
2021/09/30 14:37:58;;;;;;;14.32;8.80;;;;;;;24.03;46.59;99100.41;5123214;28;20044;-94
2021/09/30 14:40:25;;;;;;;17.05;8.65;;;;;;;23.97;45.78;99115.34;5122426;28;20047;-94
2021/09/30 14:42:51;;;;;;;15.02;8.45;;;;;;;23.96;46.17;99104.56;5118746;27;20051;-94
2021/09/30 14:45:17;;;;;;;17.48;8.57;;;;;;;23.93;46.16;99100.25;5115063;28;20114;-94
2021/09/30 14:47:43;;;;;;;13.93;9.00;;;;;;;24.05;47.17;99132.88;5106443;28;20044;-95